Time;durP1;ratioP1;P1;durP2;ratioP2;P2;SDS_P1;SDS_P2;PMS_P1;PMS_P2;Temp;Humidity;BMP_temperature;BMP_pressure;BME280_temperature;BME280_humidity;BME280_pressure;Samples;Min_cycle;Max_cycle;Signal;HPM_P1;HPM_P2
2024/02/05 00:00:13;;;;;;;2.83;2.57;;;6.70;99.90;;;;;;485076;245;27536;-74
2024/02/05 00:02:14;;;;;;;3.00;2.30;;;6.70;99.90;;;;;;485063;245;28058;-73
2024/02/05 00:04:16;;;;;;;2.57;2.37;;;6.70;99.90;;;;;;485082;245;28715;-71
2024/02/05 00:06:17;;;;;;;3.40;2.43;;;6.80;99.90;;;;;;485049;245;28158;-73
2024/02/05 00:08:18;;;;;;;2.90;2.53;;;6.70;99.90;;;;;;485086;245;27676;-71
2024/02/05 00:10:20;;;;;;;2.83;2.23;;;6.70;99.90;;;;;;485059;245;28582;-71
2024/02/05 00:12:22;;;;;;;2.67;2.47;;;6.70;99.90;;;;;;485044;245;28172;-74
2024/02/05 00:14:23;;;;;;;2.85;2.00;;;6.80;99.90;;;;;;485081;245;28631;-71
2024/02/05 00:16:24;;;;;;;2.50;2.20;;;6.80;99.90;;;;;;485070;245;27486;-71
2024/02/05 00:18:25;;;;;;;3.10;2.57;;;6.70;99.90;;;;;;485079;245;27762;-71
2024/02/05 00:20:27;;;;;;;2.80;2.20;;;6.80;99.90;;;;;;485057;245;28092;-72
2024/02/05 00:22:28;;;;;;;4.53;2.70;;;6.80;99.90;;;;;;485037;245;27561;-73
2024/02/05 00:24:29;;;;;;;3.50;2.60;;;6.80;99.90;;;;;;485085;245;29018;-75
2024/02/05 00:26:31;;;;;;;2.60;2.40;;;6.80;99.90;;;;;;485047;245;28004;-72
2024/02/05 00:28:32;;;;;;;3.20;2.60;;;6.80;99.90;;;;;;485057;245;28019;-73
2024/02/05 00:30:33;;;;;;;3.23;2.93;;;6.80;99.90;;;;;;485070;245;27733;-73
2024/02/05 00:32:35;;;;;;;3.23;2.13;;;6.80;99.90;;;;;;485086;245;27968;-70
2024/02/05 00:34:36;;;;;;;2.60;2.40;;;6.80;99.90;;;;;;484990;245;28421;-71
2024/02/05 00:36:37;;;;;;;4.23;2.37;;;6.80;99.90;;;;;;485029;245;28402;-71
2024/02/05 00:38:38;;;;;;;3.10;2.80;;;6.80;99.90;;;;;;485043;245;28470;-74
2024/02/05 00:40:41;;;;;;;2.37;2.27;;;6.80;99.90;;;;;;485079;245;30313;-70
2024/02/05 00:42:40;;;;;;;11.50;2.90;;;6.80;99.90;;;;;;484950;245;28346;-70
2024/02/05 00:44:42;;;;;;;3.57;2.80;;;6.80;99.90;;;;;;485109;245;28522;-73
2024/02/05 00:46:43;;;;;;;2.63;2.43;;;6.80;99.90;;;;;;485021;245;28855;-72
2024/02/05 00:48:44;;;;;;;4.17;2.40;;;6.80;99.90;;;;;;485069;245;28889;-71
2024/02/05 00:50:45;;;;;;;3.07;2.40;;;6.80;99.90;;;;;;485065;245;28600;-73
2024/02/05 00:52:47;;;;;;;2.37;2.20;;;6.80;99.90;;;;;;485098;245;28288;-71
2024/02/05 00:54:48;;;;;;;4.73;2.80;;;6.80;99.90;;;;;;485095;245;28134;-73
2024/02/05 00:56:49;;;;;;;2.60;2.40;;;6.80;99.90;;;;;;484990;245;28424;-75
2024/02/05 00:58:50;;;;;;;6.13;2.50;;;6.80;99.90;;;;;;485023;245;27650;-73
2024/02/05 01:00:52;;;;;;;2.50;2.30;;;6.80;99.90;;;;;;485109;245;27823;-74
2024/02/05 01:02:53;;;;;;;5.73;2.57;;;6.80;99.90;;;;;;485068;245;28134;-72
2024/02/05 01:04:56;;;;;;;4.85;2.42;;;6.80;99.90;;;;;;485074;245;28105;-70
2024/02/05 01:06:55;;;;;;;2.80;2.60;;;6.80;99.90;;;;;;484925;245;27945;-73
2024/02/05 01:08:57;;;;;;;3.20;2.90;;;6.80;99.90;;;;;;485112;245;28597;-73
2024/02/05 01:10:58;;;;;;;3.13;2.60;;;6.80;99.90;;;;;;485095;245;28440;-75
2024/02/05 01:12:59;;;;;;;3.10;2.50;;;6.80;99.90;;;;;;485049;245;28551;-73
2024/02/05 01:15:00;;;;;;;2.80;2.50;;;6.80;99.90;;;;;;485053;245;27620;-73
2024/02/05 01:17:02;;;;;;;2.67;2.45;;;6.80;99.90;;;;;;484996;245;27568;-72
2024/02/05 01:19:03;;;;;;;3.20;2.70;;;6.80;99.90;;;;;;485058;245;27497;-72
2024/02/05 01:21:04;;;;;;;5.17;3.23;;;6.80;99.90;;;;;;485088;245;27614;-73
2024/02/05 01:23:05;;;;;;;3.50;2.60;;;6.80;99.90;;;;;;485069;245;28847;-72
2024/02/05 01:25:08;;;;;;;5.30;2.90;;;6.80;99.90;;;;;;485066;245;29351;-73
2024/02/05 01:27:08;;;;;;;3.37;2.97;;;6.70;99.90;;;;;;485008;245;29359;-75
2024/02/05 01:29:09;;;;;;;3.47;2.95;;;6.70;99.90;;;;;;485074;245;28492;-73
2024/02/05 01:31:11;;;;;;;4.40;3.15;;;6.80;99.90;;;;;;485087;245;27533;-71
2024/02/05 01:33:14;;;;;;;4.70;2.78;;;6.70;99.90;;;;;;485057;245;27495;-73
2024/02/05 01:35:13;;;;;;;3.17;2.80;;;6.70;99.90;;;;;;484931;245;27533;-70
2024/02/05 01:37:14;;;;;;;4.83;3.20;;;6.70;99.90;;;;;;485017;245;27533;-73
2024/02/05 01:39:16;;;;;;;3.97;3.37;;;6.70;99.90;;;;;;485031;245;28924;-72
2024/02/05 01:41:17;;;;;;;4.63;3.33;;;6.70;99.90;;;;;;485056;245;27988;-72
2024/02/05 01:43:18;;;;;;;3.00;2.70;;;6.70;99.90;;;;;;485057;245;27951;-72
2024/02/05 01:45:19;;;;;;;4.53;3.67;;;6.70;99.90;;;;;;485078;245;28967;-72
2024/02/05 01:47:22;;;;;;;3.30;3.00;;;6.70;99.90;;;;;;485042;245;28378;-73
2024/02/05 01:49:22;;;;;;;5.83;3.40;;;6.70;99.90;;;;;;484949;245;28760;-72
2024/02/05 01:51:23;;;;;;;4.30;3.20;;;6.70;99.90;;;;;;485064;245;29243;-72
2024/02/05 01:53:24;;;;;;;7.10;2.87;;;6.70;99.90;;;;;;485086;245;28303;-70
2024/02/05 01:55:26;;;;;;;3.67;3.08;;;6.70;99.90;;;;;;485130;245;27493;-72
2024/02/05 01:57:27;;;;;;;3.30;2.50;;;6.70;99.90;;;;;;485074;245;27539;-72
2024/02/05 01:59:28;;;;;;;3.83;2.80;;;6.70;99.90;;;;;;485092;245;27987;-72
2024/02/05 02:01:29;;;;;;;3.72;2.85;;;6.70;99.90;;;;;;485064;245;27582;-72
2024/02/05 02:03:31;;;;;;;3.90;2.80;;;6.70;99.90;;;;;;485135;245;27548;-73
2024/02/05 02:05:32;;;;;;;3.30;3.00;;;6.70;99.90;;;;;;485108;245;27614;-72
2024/02/05 02:07:33;;;;;;;5.63;2.97;;;6.70;99.90;;;;;;485137;245;28525;-73
2024/02/05 02:09:34;;;;;;;4.43;3.53;;;6.70;99.90;;;;;;485133;245;28299;-70
2024/02/05 02:11:36;;;;;;;4.77;2.93;;;6.70;99.90;;;;;;485130;245;29513;-70
2024/02/05 02:13:37;;;;;;;2.97;2.50;;;6.70;99.90;;;;;;485145;245;28450;-73
2024/02/05 02:15:38;;;;;;;3.90;2.93;;;6.70;99.90;;;;;;485109;245;28834;-70
2024/02/05 02:17:39;;;;;;;3.27;2.90;;;6.70;99.90;;;;;;485104;245;28218;-70
2024/02/05 02:19:46;;;;;;;4.15;3.15;;;6.70;99.90;;;;;;485094;245;28897;-72
2024/02/05 02:21:45;;;;;;;4.37;3.07;;;6.70;99.90;;;;;;485008;245;28075;-72
2024/02/05 02:23:46;;;;;;;4.40;3.08;;;6.70;99.90;;;;;;485108;245;28432;-71
2024/02/05 02:25:47;;;;;;;4.93;2.70;;;6.70;99.90;;;;;;485073;245;28031;-71
2024/02/05 02:27:48;;;;;;;3.97;3.40;;;6.70;99.90;;;;;;485056;245;27505;-70
2024/02/05 02:29:50;;;;;;;3.00;2.67;;;6.70;99.90;;;;;;485100;245;28005;-70
2024/02/05 02:31:51;;;;;;;4.30;2.87;;;6.70;99.90;;;;;;485141;245;27759;-75
2024/02/05 02:33:53;;;;;;;4.22;2.53;;;6.70;99.90;;;;;;485118;245;28668;-72
2024/02/05 02:35:54;;;;;;;2.80;2.40;;;6.70;99.90;;;;;;485015;245;27612;-72
2024/02/05 02:37:55;;;;;;;3.78;2.50;;;6.70;99.90;;;;;;485092;245;27962;-72
2024/02/05 02:39:56;;;;;;;4.30;3.20;;;6.70;99.90;;;;;;485135;245;27512;-72
2024/02/05 02:41:57;;;;;;;4.37;2.45;;;6.70;99.90;;;;;;485106;245;29411;-71
2024/02/05 02:43:59;;;;;;;4.00;2.70;;;6.70;99.90;;;;;;485134;245;28030;-71
2024/02/05 02:46:00;;;;;;;3.70;3.05;;;6.70;99.90;;;;;;485011;245;29179;-71
2024/02/05 02:48:01;;;;;;;3.40;2.80;;;6.70;99.90;;;;;;485029;245;27536;-73
2024/02/05 02:50:02;;;;;;;3.13;2.83;;;6.70;99.90;;;;;;485132;245;28058;-71
2024/02/05 02:52:04;;;;;;;4.00;2.60;;;6.70;99.90;;;;;;485097;245;28898;-71
2024/02/05 02:54:05;;;;;;;3.80;2.90;;;6.70;99.90;;;;;;485084;245;27537;-71
2024/02/05 02:56:06;;;;;;;4.20;3.08;;;6.60;99.90;;;;;;485024;245;27630;-71
2024/02/05 02:58:07;;;;;;;3.13;2.90;;;6.70;99.90;;;;;;485099;245;28022;-73
2024/02/05 03:00:09;;;;;;;4.22;3.15;;;6.70;99.90;;;;;;485072;245;28084;-73
2024/02/05 03:02:10;;;;;;;2.90;2.60;;;6.70;99.90;;;;;;485078;245;27528;-73
2024/02/05 03:04:11;;;;;;;3.10;2.80;;;6.70;99.90;;;;;;485068;245;27895;-73
2024/02/05 03:06:12;;;;;;;5.43;2.90;;;6.70;99.90;;;;;;485052;245;28778;-72
2024/02/05 03:08:14;;;;;;;3.40;3.10;;;6.70;99.90;;;;;;485114;245;28883;-71
2024/02/05 03:10:15;;;;;;;4.75;3.50;;;6.70;99.90;;;;;;485080;245;28372;-70
2024/02/05 03:12:16;;;;;;;3.53;3.22;;;6.70;99.90;;;;;;485050;245;28033;-73
2024/02/05 03:14:17;;;;;;;4.78;3.10;;;6.70;99.90;;;;;;485117;245;28222;-72
2024/02/05 03:16:19;;;;;;;6.25;2.83;;;6.70;99.90;;;;;;485014;245;27492;-71
2024/02/05 03:18:20;;;;;;;3.30;2.57;;;6.70;99.90;;;;;;485099;245;27592;-70
2024/02/05 03:20:21;;;;;;;4.03;3.15;;;6.70;99.90;;;;;;485019;245;28897;-73
2024/02/05 03:22:22;;;;;;;3.90;3.10;;;6.70;99.90;;;;;;485090;245;27638;-70
2024/02/05 03:24:24;;;;;;;3.57;3.27;;;6.70;99.90;;;;;;485109;245;28871;-72
2024/02/05 03:26:25;;;;;;;6.47;3.55;;;6.70;99.90;;;;;;485035;245;27997;-70
2024/02/05 03:28:28;;;;;;;3.67;3.20;;;6.60;99.90;;;;;;485084;245;27517;-71
2024/02/05 03:30:27;;;;;;;4.57;3.53;;;6.70;99.90;;;;;;484983;245;27916;-70
2024/02/05 03:32:29;;;;;;;6.82;3.28;;;6.70;99.90;;;;;;485084;245;28326;-73
2024/02/05 03:34:30;;;;;;;5.23;3.60;;;6.70;99.90;;;;;;485092;245;27533;-74
2024/02/05 03:36:31;;;;;;;4.20;3.33;;;6.60;99.90;;;;;;485018;245;27903;-74
2024/02/05 03:38:33;;;;;;;3.80;3.50;;;6.60;99.90;;;;;;485007;245;28472;-73
2024/02/05 03:40:35;;;;;;;5.30;3.30;;;6.60;99.90;;;;;;485058;245;27899;-73
2024/02/05 03:42:35;;;;;;;5.47;3.80;;;6.60;99.90;;;;;;485021;245;27951;-70
2024/02/05 03:44:36;;;;;;;5.60;3.10;;;6.60;99.90;;;;;;485056;245;28522;-73
2024/02/05 03:46:38;;;;;;;6.82;4.20;;;6.70;99.90;;;;;;485015;245;28004;-73
2024/02/05 03:48:39;;;;;;;4.22;3.83;;;6.60;99.90;;;;;;485042;245;27623;-73
2024/02/05 03:50:40;;;;;;;3.60;3.30;;;6.60;99.90;;;;;;485135;245;27533;-74
2024/02/05 03:52:45;;;;;;;4.57;3.90;;;6.60;99.90;;;;;;485097;245;28699;-73
2024/02/05 03:54:44;;;;;;;5.28;3.10;;;6.70;99.90;;;;;;484858;245;28121;-73
2024/02/05 03:56:44;;;;;;;3.78;3.35;;;6.70;99.90;;;;;;484948;245;27488;-73
2024/02/05 03:58:45;;;;;;;5.07;4.17;;;6.70;99.90;;;;;;485110;245;27478;-70
2024/02/05 04:00:46;;;;;;;4.17;3.20;;;6.70;99.90;;;;;;485093;245;29405;-72
2024/02/05 04:02:48;;;;;;;5.17;3.30;;;6.70;99.90;;;;;;485106;245;29177;-70
2024/02/05 04:04:49;;;;;;;4.40;3.30;;;6.70;99.90;;;;;;485054;245;29351;-71
2024/02/05 04:06:50;;;;;;;5.30;3.57;;;6.70;99.90;;;;;;485048;245;29555;-72
2024/02/05 04:08:51;;;;;;;5.57;3.73;;;6.70;99.90;;;;;;485104;245;29461;-72
2024/02/05 04:10:53;;;;;;;4.70;4.20;;;6.70;99.90;;;;;;485097;245;28616;-72
2024/02/05 04:12:54;;;;;;;5.50;4.68;;;6.70;99.90;;;;;;485042;245;27580;-70
2024/02/05 04:14:55;;;;;;;6.63;4.60;;;6.70;99.90;;;;;;485067;245;27612;-70
2024/02/05 04:16:56;;;;;;;7.07;3.83;;;6.70;99.90;;;;;;485071;245;28011;-72
2024/02/05 04:18:59;;;;;;;5.93;3.30;;;6.70;99.90;;;;;;485079;245;28755;-72
2024/02/05 04:21:03;;;;;;;7.00;3.83;;;6.60;99.90;;;;;;485042;245;27889;-71
2024/02/05 04:23:00;;;;;;;7.15;4.20;;;6.70;99.90;;;;;;484730;245;28077;-71
2024/02/05 04:25:01;;;;;;;6.30;3.63;;;6.70;99.90;;;;;;485099;245;27995;-71
2024/02/05 04:27:03;;;;;;;5.50;4.13;;;6.70;99.90;;;;;;485064;245;28959;-75
2024/02/05 04:29:13;;;;;;;8.10;4.77;;;6.60;99.90;;;;;;485102;245;28048;-70
2024/02/05 04:31:05;;;;;;;10.07;3.47;;;6.70;99.90;;;;;;484286;245;28004;-71
2024/02/05 04:33:06;;;;;;;6.77;4.03;;;6.70;99.90;;;;;;485046;245;28854;-70
2024/02/05 04:35:08;;;;;;;6.70;3.80;;;6.70;99.90;;;;;;485108;245;28442;-70
2024/02/05 04:37:09;;;;;;;4.70;4.20;;;6.70;99.90;;;;;;485055;245;28859;-71
2024/02/05 04:39:10;;;;;;;6.03;4.17;;;6.70;99.90;;;;;;485036;245;29254;-73
2024/02/05 04:41:11;;;;;;;9.80;3.93;;;6.60;99.90;;;;;;485076;245;27566;-70
2024/02/05 04:43:13;;;;;;;5.83;3.70;;;6.60;99.90;;;;;;485084;245;28046;-71
2024/02/05 04:45:14;;;;;;;9.10;3.90;;;6.70;99.90;;;;;;484956;245;27860;-70
2024/02/05 04:47:16;;;;;;;10.63;4.90;;;6.70;99.90;;;;;;485020;245;29384;-74
2024/02/05 04:49:18;;;;;;;6.83;4.50;;;6.70;99.90;;;;;;485068;245;28641;-73
2024/02/05 04:51:18;;;;;;;7.83;4.27;;;6.70;99.90;;;;;;484978;245;28497;-73
2024/02/05 04:53:19;;;;;;;5.47;4.10;;;6.70;99.90;;;;;;485099;245;29381;-72
2024/02/05 04:55:20;;;;;;;8.27;3.90;;;6.70;99.90;;;;;;485111;245;29088;-70
2024/02/05 04:57:21;;;;;;;6.93;4.45;;;6.70;99.90;;;;;;485027;245;29093;-70
2024/02/05 04:59:23;;;;;;;9.57;4.93;;;6.70;99.90;;;;;;485097;245;27497;-70
2024/02/05 05:01:24;;;;;;;6.45;4.70;;;6.70;99.90;;;;;;485067;245;27871;-73
2024/02/05 05:03:25;;;;;;;6.10;4.62;;;6.70;99.90;;;;;;485102;245;27529;-74
2024/02/05 05:05:26;;;;;;;7.80;4.67;;;6.60;99.90;;;;;;485073;245;27576;-73
2024/02/05 05:07:28;;;;;;;5.73;4.70;;;6.60;99.90;;;;;;485063;245;27887;-72
2024/02/05 05:09:29;;;;;;;10.17;5.30;;;6.70;99.90;;;;;;485020;245;29470;-71
2024/02/05 05:11:30;;;;;;;12.37;5.10;;;6.70;99.90;;;;;;485103;245;28420;-71
2024/02/05 05:13:31;;;;;;;7.67;4.40;;;6.70;99.90;;;;;;485073;245;29613;-71
2024/02/05 05:15:33;;;;;;;7.47;5.20;;;6.60;99.90;;;;;;485041;245;29305;-71
2024/02/05 05:17:34;;;;;;;9.93;5.10;;;6.70;99.90;;;;;;485025;245;27503;-71
2024/02/05 05:19:35;;;;;;;7.30;5.22;;;6.70;99.90;;;;;;485040;245;28869;-74
2024/02/05 05:21:36;;;;;;;7.43;4.87;;;6.70;99.90;;;;;;485051;245;27572;-72
2024/02/05 05:23:38;;;;;;;7.93;5.33;;;6.70;99.90;;;;;;485005;245;28050;-73
2024/02/05 05:25:39;;;;;;;17.47;5.10;;;6.70;99.90;;;;;;485020;245;28844;-70
2024/02/05 05:27:40;;;;;;;10.93;5.30;;;6.70;99.90;;;;;;485089;245;28899;-70
2024/02/05 05:29:41;;;;;;;6.57;4.80;;;6.70;99.90;;;;;;484953;245;28304;-71
2024/02/05 05:31:43;;;;;;;10.03;5.20;;;6.70;99.90;;;;;;485078;245;27867;-70
2024/02/05 05:33:44;;;;;;;6.30;5.00;;;6.70;99.90;;;;;;485065;245;28591;-72
2024/02/05 05:35:45;;;;;;;6.93;6.23;;;6.70;99.90;;;;;;485045;245;28948;-70
2024/02/05 05:37:46;;;;;;;10.70;5.13;;;6.70;99.90;;;;;;485098;245;28785;-70
2024/02/05 05:39:49;;;;;;;10.07;5.03;;;6.70;99.90;;;;;;485088;245;29057;-73
2024/02/05 05:41:49;;;;;;;8.97;5.30;;;6.70;99.90;;;;;;485006;245;28873;-72
2024/02/05 05:43:52;;;;;;;8.63;4.90;;;6.70;99.90;;;;;;485077;245;27879;-73
2024/02/05 05:45:51;;;;;;;6.97;5.87;;;6.70;99.90;;;;;;484961;245;28145;-74
2024/02/05 05:47:53;;;;;;;9.63;5.63;;;6.70;99.90;;;;;;485094;245;28204;-72
2024/02/05 05:49:54;;;;;;;8.75;5.78;;;6.70;99.90;;;;;;485083;245;28003;-73
2024/02/05 05:51:55;;;;;;;12.10;5.75;;;6.70;99.90;;;;;;485067;245;27570;-77
2024/02/05 05:53:56;;;;;;;11.67;5.70;;;6.70;99.90;;;;;;485104;245;27548;-71
2024/02/05 05:55:58;;;;;;;9.47;6.30;;;6.70;99.90;;;;;;485087;245;27892;-74
2024/02/05 05:57:59;;;;;;;10.27;6.13;;;6.70;99.90;;;;;;485126;245;28256;-72
2024/02/05 06:00:00;;;;;;;10.45;5.80;;;6.70;99.90;;;;;;485123;245;28225;-72
2024/02/05 06:02:02;;;;;;;10.83;5.80;;;6.70;99.90;;;;;;485066;245;27712;-71
2024/02/05 06:04:03;;;;;;;14.87;5.80;;;6.70;99.90;;;;;;485136;245;28200;-72
2024/02/05 06:06:04;;;;;;;7.97;5.62;;;6.70;99.90;;;;;;485036;245;28907;-71
2024/02/05 06:08:05;;;;;;;9.80;5.87;;;6.70;99.90;;;;;;485096;245;27470;-73
2024/02/05 06:10:06;;;;;;;20.52;7.00;;;6.70;99.90;;;;;;485031;245;28889;-72
2024/02/05 06:12:08;;;;;;;14.43;7.27;;;6.70;99.90;;;;;;485071;245;27510;-73
2024/02/05 06:14:09;;;;;;;15.77;6.80;;;6.70;99.90;;;;;;485094;245;28948;-72
2024/02/05 06:16:10;;;;;;;11.90;6.40;;;6.70;99.90;;;;;;484993;245;29337;-73
2024/02/05 06:18:13;;;;;;;15.40;7.43;;;6.70;99.90;;;;;;484920;245;28816;-71
2024/02/05 06:20:13;;;;;;;9.43;6.40;;;6.70;99.90;;;;;;484952;245;27421;-72
2024/02/05 06:22:14;;;;;;;20.62;7.28;;;6.70;99.90;;;;;;485070;245;28769;-72
2024/02/05 06:24:15;;;;;;;12.32;7.28;;;6.80;99.90;;;;;;485103;245;27506;-71
2024/02/05 06:26:16;;;;;;;12.40;6.60;;;6.80;99.90;;;;;;485023;245;27599;-71
2024/02/05 06:28:18;;;;;;;14.13;6.27;;;6.70;99.90;;;;;;485036;245;28825;-70
2024/02/05 06:30:19;;;;;;;19.50;6.90;;;6.80;99.90;;;;;;485071;245;28917;-73
2024/02/05 06:32:20;;;;;;;13.40;6.47;;;6.80;99.90;;;;;;485076;245;28630;-70
2024/02/05 06:34:22;;;;;;;15.20;7.00;;;6.80;99.90;;;;;;485044;245;28821;-72
2024/02/05 06:36:23;;;;;;;10.88;7.10;;;6.80;99.90;;;;;;484992;245;29527;-73
2024/02/05 06:38:24;;;;;;;9.93;6.07;;;6.80;99.90;;;;;;485091;245;27534;-70
2024/02/05 06:40:25;;;;;;;14.33;6.43;;;6.80;99.90;;;;;;484953;245;27481;-71
2024/02/05 06:42:27;;;;;;;13.60;7.03;;;6.80;99.90;;;;;;485086;245;28896;-71
2024/02/05 06:44:28;;;;;;;13.60;7.20;;;6.80;99.90;;;;;;484999;245;28908;-71
2024/02/05 06:46:29;;;;;;;20.97;7.47;;;6.80;99.90;;;;;;484887;245;28151;-72
2024/02/05 06:48:34;;;;;;;15.40;6.80;;;6.80;99.90;;;;;;485110;245;28250;-74
2024/02/05 06:50:32;;;;;;;18.10;8.40;;;6.80;99.90;;;;;;484781;245;28575;-72
2024/02/05 06:52:33;;;;;;;13.17;6.80;;;6.80;99.90;;;;;;485068;245;28844;-73
2024/02/05 06:54:34;;;;;;;17.67;7.33;;;6.80;99.90;;;;;;485045;245;28475;-72
2024/02/05 06:56:35;;;;;;;17.67;7.27;;;6.80;99.90;;;;;;485077;245;29132;-72
2024/02/05 06:58:37;;;;;;;13.68;6.82;;;6.80;99.90;;;;;;485082;245;28922;-73
2024/02/05 07:00:38;;;;;;;16.80;7.07;;;6.80;99.90;;;;;;485078;245;27508;-72
2024/02/05 07:02:39;;;;;;;15.87;8.23;;;6.80;99.90;;;;;;485049;245;28796;-72
2024/02/05 07:04:40;;;;;;;18.53;8.60;;;6.80;99.90;;;;;;485061;245;28892;-72
2024/02/05 07:06:42;;;;;;;11.90;7.37;;;6.80;99.90;;;;;;485064;245;28321;-72
2024/02/05 07:08:45;;;;;;;13.47;7.40;;;6.80;99.90;;;;;;485087;245;27975;-71
2024/02/05 07:10:44;;;;;;;16.90;8.80;;;6.80;99.90;;;;;;484893;245;29416;-71
2024/02/05 07:12:45;;;;;;;11.40;7.70;;;6.80;99.90;;;;;;485059;245;28572;-71
2024/02/05 07:14:47;;;;;;;15.30;8.13;;;6.80;99.90;;;;;;485076;245;28368;-73
2024/02/05 07:16:48;;;;;;;21.73;8.10;;;6.80;99.90;;;;;;485057;245;28928;-71
2024/02/05 07:18:49;;;;;;;19.83;8.03;;;6.80;99.90;;;;;;485091;245;28383;-71
2024/02/05 07:20:50;;;;;;;17.83;8.37;;;6.80;99.90;;;;;;485063;245;27973;-71
2024/02/05 07:22:53;;;;;;;14.93;8.00;;;6.80;99.90;;;;;;485060;245;28880;-71
2024/02/05 07:24:53;;;;;;;12.97;7.40;;;6.80;99.90;;;;;;484997;245;27635;-74
2024/02/05 07:26:54;;;;;;;20.33;8.75;;;6.90;99.90;;;;;;485034;245;27844;-70
2024/02/05 07:28:55;;;;;;;16.17;7.85;;;6.90;99.90;;;;;;484949;245;27590;-71
2024/02/05 07:30:57;;;;;;;18.37;8.70;;;6.90;99.90;;;;;;485085;245;28738;-72
2024/02/05 07:32:58;;;;;;;19.67;9.03;;;6.90;99.90;;;;;;485096;245;27561;-71
2024/02/05 07:35:00;;;;;;;15.20;7.40;;;6.90;99.90;;;;;;485094;245;27977;-71
2024/02/05 07:37:00;;;;;;;17.43;8.07;;;6.90;99.90;;;;;;484988;245;28840;-71
2024/02/05 07:39:06;;;;;;;16.50;8.27;;;6.90;99.90;;;;;;485073;245;29133;-73
2024/02/05 07:41:03;;;;;;;15.10;7.20;;;6.90;99.90;;;;;;484767;245;28023;-74
2024/02/05 07:43:04;;;;;;;12.88;6.62;;;6.90;99.90;;;;;;485050;245;28959;-73
2024/02/05 07:45:05;;;;;;;13.03;7.57;;;6.90;99.90;;;;;;485095;245;27625;-71
2024/02/05 07:47:07;;;;;;;14.70;7.80;;;6.90;99.90;;;;;;485011;245;29309;-71
2024/02/05 07:49:08;;;;;;;14.60;7.90;;;6.90;99.90;;;;;;485076;245;29369;-71
2024/02/05 07:51:09;;;;;;;18.00;7.43;;;6.90;99.90;;;;;;485108;245;28035;-72
2024/02/05 07:53:10;;;;;;;20.50;8.67;;;6.90;99.90;;;;;;485098;244;28322;-71
2024/02/05 07:55:12;;;;;;;17.30;7.90;;;6.90;99.90;;;;;;485088;245;28906;-71
2024/02/05 07:57:13;;;;;;;14.40;7.60;;;6.90;99.90;;;;;;485035;245;27501;-71
2024/02/05 07:59:14;;;;;;;17.60;7.77;;;6.90;99.90;;;;;;485095;245;27734;-72
2024/02/05 08:01:15;;;;;;;22.37;8.53;;;6.90;99.90;;;;;;485114;245;28136;-72
2024/02/05 08:03:17;;;;;;;20.17;9.17;;;6.90;99.90;;;;;;485064;245;27760;-70
2024/02/05 08:05:18;;;;;;;16.63;8.17;;;6.90;99.90;;;;;;485048;245;27877;-72
2024/02/05 08:07:19;;;;;;;16.37;7.90;;;6.90;99.90;;;;;;485039;245;28207;-72
2024/02/05 08:09:20;;;;;;;12.60;7.07;;;6.90;99.90;;;;;;485096;245;28616;-72
2024/02/05 08:11:22;;;;;;;14.63;7.73;;;6.90;99.90;;;;;;484937;245;28742;-73
2024/02/05 08:13:23;;;;;;;15.67;8.70;;;6.90;99.90;;;;;;485060;245;28728;-71
2024/02/05 08:15:24;;;;;;;18.40;8.40;;;6.90;99.90;;;;;;485045;245;28324;-73
2024/02/05 08:17:25;;;;;;;27.03;7.80;;;6.90;99.90;;;;;;485068;245;27997;-74
2024/02/05 08:19:27;;;;;;;14.70;8.37;;;6.90;99.90;;;;;;485070;245;28626;-72
2024/02/05 08:21:28;;;;;;;19.90;8.87;;;6.90;99.90;;;;;;485050;245;28924;-72
2024/02/05 08:23:29;;;;;;;14.20;8.60;;;6.90;99.90;;;;;;485072;245;27517;-72
2024/02/05 08:25:30;;;;;;;14.10;7.30;;;6.90;99.90;;;;;;485052;245;27910;-72
2024/02/05 08:27:32;;;;;;;18.60;10.00;;;6.90;99.90;;;;;;485118;245;28028;-73
2024/02/05 08:29:33;;;;;;;15.87;8.40;;;7.00;99.90;;;;;;485109;245;27751;-72
2024/02/05 08:31:36;;;;;;;16.37;8.65;;;7.00;99.90;;;;;;485113;245;28599;-72
2024/02/05 08:33:36;;;;;;;21.42;8.45;;;6.90;99.90;;;;;;485016;245;28816;-72
2024/02/05 08:35:37;;;;;;;19.80;8.90;;;6.90;99.90;;;;;;485043;245;27565;-72
2024/02/05 08:37:39;;;;;;;13.50;8.60;;;7.00;99.90;;;;;;485116;245;27800;-73
2024/02/05 08:39:39;;;;;;;18.90;8.00;;;7.00;99.90;;;;;;485068;245;28868;-71
2024/02/05 08:41:41;;;;;;;17.93;8.43;;;7.00;99.90;;;;;;485076;245;28033;-72
2024/02/05 08:43:42;;;;;;;10.87;7.27;;;7.00;99.90;;;;;;485108;245;28019;-73
2024/02/05 08:45:43;;;;;;;17.50;8.47;;;7.00;99.90;;;;;;485087;245;27974;-72
2024/02/05 08:47:45;;;;;;;11.83;8.00;;;7.10;99.90;;;;;;485095;245;28017;-73
2024/02/05 08:49:46;;;;;;;16.23;7.80;;;7.10;99.90;;;;;;485095;245;28442;-72
2024/02/05 08:51:47;;;;;;;23.27;9.00;;;7.10;99.90;;;;;;485104;245;28501;-72
2024/02/05 08:53:48;;;;;;;17.00;7.67;;;7.00;99.90;;;;;;485103;245;29453;-74
2024/02/05 08:55:49;;;;;;;16.67;8.60;;;7.00;99.90;;;;;;485040;245;27987;-72
2024/02/05 08:57:51;;;;;;;15.03;7.80;;;7.00;99.90;;;;;;485057;245;28873;-72
2024/02/05 08:59:52;;;;;;;14.43;7.83;;;7.00;99.90;;;;;;485034;245;28607;-72
2024/02/05 09:01:53;;;;;;;21.33;8.93;;;7.00;99.90;;;;;;485081;245;28061;-72
2024/02/05 09:03:54;;;;;;;18.37;9.20;;;7.10;99.90;;;;;;485048;245;27786;-73
2024/02/05 09:05:56;;;;;;;15.47;7.70;;;7.00;99.90;;;;;;485030;245;27996;-72
2024/02/05 09:07:57;;;;;;;10.83;8.00;;;7.10;99.90;;;;;;484918;245;28012;-72
2024/02/05 09:09:58;;;;;;;13.77;8.17;;;7.00;99.90;;;;;;485074;245;28114;-72
2024/02/05 09:11:59;;;;;;;15.03;7.77;;;7.10;99.90;;;;;;485109;245;27814;-72
2024/02/05 09:14:01;;;;;;;14.70;8.40;;;7.00;99.90;;;;;;485079;245;28345;-73
2024/02/05 09:16:02;;;;;;;20.30;7.70;;;7.10;99.90;;;;;;485018;245;28237;-72
2024/02/05 09:18:03;;;;;;;14.80;7.50;;;7.10;99.90;;;;;;485032;245;28505;-72
2024/02/05 09:20:04;;;;;;;14.43;7.40;;;7.00;99.90;;;;;;485094;245;28884;-74
2024/02/05 09:22:06;;;;;;;20.77;8.40;;;7.10;99.90;;;;;;485065;245;27489;-72
2024/02/05 09:24:07;;;;;;;9.85;7.57;;;7.10;99.90;;;;;;485060;245;28901;-73
2024/02/05 09:26:08;;;;;;;13.90;8.43;;;7.10;99.90;;;;;;485005;245;27604;-72
2024/02/05 09:28:10;;;;;;;14.57;7.30;;;7.10;99.90;;;;;;485083;245;28553;-72
2024/02/05 09:30:11;;;;;;;15.77;7.10;;;7.20;99.90;;;;;;485083;245;27651;-73
2024/02/05 09:32:12;;;;;;;15.87;8.33;;;7.20;99.90;;;;;;485052;245;28840;-73
2024/02/05 09:34:13;;;;;;;17.73;7.60;;;7.20;99.90;;;;;;485065;245;28564;-73
2024/02/05 09:36:14;;;;;;;18.80;7.33;;;7.20;99.90;;;;;;484995;245;29238;-72
2024/02/05 09:38:16;;;;;;;21.20;8.23;;;7.20;99.90;;;;;;485077;245;28452;-72
2024/02/05 09:40:17;;;;;;;17.93;8.07;;;7.20;99.90;;;;;;485083;245;27985;-73
2024/02/05 09:42:18;;;;;;;17.40;9.40;;;7.20;99.90;;;;;;485070;245;28053;-72
2024/02/05 09:44:19;;;;;;;20.73;9.53;;;7.30;99.90;;;;;;485009;245;28037;-73
2024/02/05 09:46:21;;;;;;;12.27;6.90;;;7.30;99.90;;;;;;485068;245;27971;-72
2024/02/05 09:48:22;;;;;;;16.50;6.93;;;7.30;99.90;;;;;;485104;245;27794;-72
2024/02/05 09:50:23;;;;;;;16.70;7.83;;;7.30;99.90;;;;;;485068;245;27914;-72
2024/02/05 09:52:24;;;;;;;16.97;7.00;;;7.20;99.90;;;;;;485046;245;27856;-72
2024/02/05 09:54:26;;;;;;;12.90;7.23;;;7.20;99.90;;;;;;485037;245;28054;-72
2024/02/05 09:56:28;;;;;;;23.20;7.53;;;7.20;99.90;;;;;;485032;245;27433;-74
2024/02/05 09:58:28;;;;;;;16.10;7.47;;;7.20;99.90;;;;;;485061;245;28476;-72
2024/02/05 10:00:29;;;;;;;15.80;7.07;;;7.30;99.90;;;;;;484916;245;28545;-72
2024/02/05 10:02:31;;;;;;;12.90;6.90;;;7.30;99.90;;;;;;485047;245;28176;-72
2024/02/05 10:04:32;;;;;;;13.30;6.07;;;7.30;99.90;;;;;;485056;245;27567;-72
2024/02/05 10:06:33;;;;;;;11.43;6.87;;;7.30;99.90;;;;;;485041;245;27584;-74
2024/02/05 10:08:34;;;;;;;18.62;7.18;;;7.30;99.90;;;;;;485056;245;27968;-71
2024/02/05 10:10:36;;;;;;;19.90;6.47;;;7.40;99.90;;;;;;485020;245;27540;-72
2024/02/05 10:12:38;;;;;;;13.03;6.23;;;7.40;99.90;;;;;;485040;245;27967;-72
2024/02/05 10:14:38;;;;;;;12.03;6.90;;;7.40;99.90;;;;;;485031;245;27756;-72
2024/02/05 10:16:43;;;;;;;19.63;7.43;;;7.40;99.90;;;;;;485049;245;27923;-73
2024/02/05 10:18:43;;;;;;;17.33;6.77;;;7.40;99.90;;;;;;485086;245;28045;-73
2024/02/05 10:20:45;;;;;;;11.60;6.40;;;7.40;99.90;;;;;;485098;245;28423;-72
2024/02/05 10:22:46;;;;;;;11.20;6.47;;;7.40;99.90;;;;;;485051;245;28503;-72
2024/02/05 10:24:47;;;;;;;11.00;6.30;;;7.50;99.90;;;;;;485075;245;29266;-72
2024/02/05 10:26:48;;;;;;;9.70;5.73;;;7.50;99.90;;;;;;485009;245;27992;-72
2024/02/05 10:28:50;;;;;;;17.43;6.50;;;7.50;99.90;;;;;;485127;245;28099;-73
2024/02/05 10:30:51;;;;;;;12.20;5.83;;;7.50;99.90;;;;;;485074;245;27804;-72
2024/02/05 10:32:52;;;;;;;17.77;5.30;;;7.50;99.90;;;;;;485014;245;28148;-72
2024/02/05 10:34:54;;;;;;;16.03;5.60;;;7.60;99.90;;;;;;485115;245;28035;-72